TimeMST,TemperatureF,Dew PointF,Humidity,Sea Level PressureIn,VisibilityMPH,Wind Direction,Wind SpeedMPH,Gust SpeedMPH,PrecipitationIn,Events,Conditions,WindDirDegrees,DateUTC
12:55 AM,51.8,30.2,44,30.15,10.0,ENE,4.6,-,N/A,,Scattered Clouds,60,2012-12-05 07:55:00
1:55 AM,48.2,28.4,46,30.16,10.0,Calm,Calm,-,N/A,,Mostly Cloudy,0,2012-12-05 08:55:00
2:55 AM,51.8,28.4,41,30.14,10.0,Calm,Calm,-,N/A,,Mostly Cloudy,0,2012-12-05 09:55:00
3:55 AM,44.6,28.4,53,30.15,10.0,Calm,Calm,-,N/A,,Overcast,0,2012-12-05 10:55:00
4:55 AM,46.4,28.4,50,30.14,10.0,SSE,3.5,-,N/A,,Overcast,150,2012-12-05 11:55:00
5:55 AM,50.0,28.4,43,30.15,10.0,Calm,Calm,-,N/A,,Overcast,0,2012-12-05 12:55:00
7:55 AM,46.4,28.4,50,30.19,10.0,Calm,Calm,-,N/A,,Mostly Cloudy,0,2012-12-05 14:55:00
8:55 AM,55.4,28.4,36,30.17,10.0,NE,4.6,-,N/A,,Mostly Cloudy,50,2012-12-05 15:55:00
9:55 AM,60.8,28.4,29,30.15,10.0,East,5.8,-,N/A,,Mostly Cloudy,80,2012-12-05 16:55:00
10:55 AM,64.4,30.2,28,30.12,10.0,East,9.2,-,N/A,,Mostly Cloudy,100,2012-12-05 17:55:00
11:55 AM,68.0,28.4,23,30.09,10.0,SE,9.2,-,N/A,,Mostly Cloudy,140,2012-12-05 18:55:00
12:55 PM,69.8,28.4,21,30.05,10.0,ESE,8.1,-,N/A,,Mostly Cloudy,120,2012-12-05 19:55:00
1:55 PM,71.6,24.8,17,30.02,10.0,Calm,Calm,-,N/A,,Mostly Cloudy,0,2012-12-05 20:55:00
2:55 PM,73.4,24.8,16,30.00,10.0,Calm,Calm,-,N/A,,Mostly Cloudy,0,2012-12-05 21:55:00
3:55 PM,73.4,23.0,15,30.00,10.0,SE,4.6,-,N/A,,Mostly Cloudy,130,2012-12-05 22:55:00
4:55 PM,71.6,23.0,16,30.00,10.0,SE,4.6,-,N/A,,Mostly Cloudy,130,2012-12-05 23:55:00
5:55 PM,62.6,24.8,24,30.01,10.0,SW,8.1,-,N/A,,Mostly Cloudy,220,2012-12-06 00:55:00
6:55 PM,60.8,14.0,16,30.02,10.0,South,9.2,-,N/A,,Scattered Clouds,190,2012-12-06 01:55:00
7:55 PM,60.8,19.4,20,30.03,10.0,WSW,6.9,-,N/A,,Scattered Clouds,240,2012-12-06 02:55:00
8:55 PM,60.8,21.2,22,30.01,10.0,West,8.1,-,N/A,,Scattered Clouds,260,2012-12-06 03:55:00
9:55 PM,57.2,23.0,27,30.00,10.0,WSW,9.2,-,N/A,,Partly Cloudy,250,2012-12-06 04:55:00
10:55 PM,57.2,24.8,29,29.98,10.0,West,11.5,-,N/A,,Partly Cloudy,270,2012-12-06 05:55:00
11:55 PM,55.4,24.8,31,29.98,10.0,West,10.4,-,N/A,,Partly Cloudy,280,2012-12-06 06:55:00